Time;durP1;ratioP1;P1;durP2;ratioP2;P2;SDS_P1;SDS_P2;PMS_P1;PMS_P2;Temp;Humidity;BMP_temperature;BMP_pressure;BME280_temperature;BME280_humidity;BME280_pressure;Samples;Min_cycle;Max_cycle;Signal;HPM_P1;HPM_P2
2023/04/11 00:00:28;;;;;;;6.70;6.00;;;8.80;90.90;;;;;;5058719;28;20102;-58
2023/04/11 00:02:58;;;;;;;6.97;6.32;;;8.80;90.90;;;;;;5057332;28;20037;-56
2023/04/11 00:05:26;;;;;;;5.82;5.22;;;8.80;90.80;;;;;;5056935;28;20028;-56
2023/04/11 00:07:51;;;;;;;5.88;5.28;;;8.80;91.20;;;;;;5060632;28;20499;-56
2023/04/11 00:10:17;;;;;;;6.28;5.47;;;8.80;90.40;;;;;;5060017;28;20048;-57
2023/04/11 00:12:43;;;;;;;6.72;6.13;;;8.90;91.10;;;;;;5062041;28;20037;-57
2023/04/11 00:15:09;;;;;;;6.63;5.68;;;8.90;90.90;;;;;;5066802;28;20504;-57
2023/04/11 00:17:36;;;;;;;6.60;6.00;;;8.90;91.40;;;;;;5060991;28;20025;-58
2023/04/11 00:20:06;;;;;;;8.23;6.57;;;8.90;91.30;;;;;;5058055;28;20104;-56
2023/04/11 00:22:32;;;;;;;6.20;5.32;;;8.90;91.40;;;;;;5058538;28;20051;-58
2023/04/11 00:24:58;;;;;;;6.40;5.80;;;8.90;90.90;;;;;;5058037;28;20435;-58
2023/04/11 00:27:23;;;;;;;8.35;5.97;;;9.00;90.90;;;;;;5058262;28;20041;-58
2023/04/11 00:29:49;;;;;;;6.55;5.93;;;8.90;91.40;;;;;;5061558;28;20073;-57
2023/04/11 00:32:14;;;;;;;7.88;5.63;;;9.00;91.20;;;;;;5058294;28;20070;-58
2023/04/11 00:34:41;;;;;;;6.60;5.82;;;8.90;91.40;;;;;;5060876;28;20020;-57
2023/04/11 00:37:06;;;;;;;5.75;5.13;;;8.90;92.00;;;;;;5059712;28;20017;-55
2023/04/11 00:39:34;;;;;;;8.02;5.93;;;8.90;91.90;;;;;;5064225;28;20101;-55
2023/04/11 00:42:07;;;;;;;6.35;5.75;;;8.80;93.20;;;;;;5058318;28;20651;-57
2023/04/11 00:44:34;;;;;;;8.65;6.70;;;8.80;94.20;;;;;;5057858;28;20078;-57
2023/04/11 00:47:01;;;;;;;7.55;6.55;;;8.70;97.50;;;;;;5052217;28;20033;-58
2023/04/11 00:49:28;;;;;;;7.05;6.35;;;8.50;99.90;;;;;;5039573;28;20036;-57
2023/04/11 00:51:54;;;;;;;8.55;7.57;;;8.40;99.90;;;;;;5059573;28;20155;-56
2023/04/11 00:54:20;;;;;;;7.70;7.00;;;8.30;99.90;;;;;;5060809;28;20108;-58
2023/04/11 00:56:46;;;;;;;8.52;7.63;;;8.20;99.90;;;;;;5055247;28;20605;-57
2023/04/11 00:59:12;;;;;;;7.43;6.72;;;8.10;99.90;;;;;;5056822;28;20111;-57
2023/04/11 01:01:38;;;;;;;8.10;7.28;;;8.00;99.90;;;;;;5058349;28;20028;-57
2023/04/11 01:04:04;;;;;;;7.65;6.93;;;8.00;99.90;;;;;;5060415;28;20028;-57
2023/04/11 01:06:31;;;;;;;8.80;7.88;;;7.90;99.90;;;;;;5058353;28;20028;-58
2023/04/11 01:08:57;;;;;;;7.43;6.70;;;7.90;99.90;;;;;;5061379;28;20577;-57
2023/04/11 01:11:23;;;;;;;8.18;7.38;;;7.90;99.90;;;;;;5063158;28;20127;-56
2023/04/11 01:13:50;;;;;;;8.40;7.13;;;7.90;99.90;;;;;;5060812;28;20039;-57
2023/04/11 01:16:20;;;;;;;7.82;7.03;;;7.90;99.90;;;;;;5063330;28;20024;-57
2023/04/11 01:18:47;;;;;;;7.53;6.72;;;7.90;99.90;;;;;;5065467;28;20035;-57
2023/04/11 01:21:13;;;;;;;8.43;7.57;;;7.90;99.90;;;;;;5060957;28;20060;-57
2023/04/11 01:23:39;;;;;;;7.35;6.65;;;7.90;99.90;;;;;;5061346;28;20029;-58
2023/04/11 01:26:05;;;;;;;8.40;7.60;;;7.90;99.90;;;;;;5065217;28;20036;-56
2023/04/11 01:28:31;;;;;;;8.23;7.35;;;7.90;99.90;;;;;;5061221;28;20571;-58
2023/04/11 01:30:56;;;;;;;9.13;8.23;;;7.90;99.90;;;;;;5061353;28;20033;-58
2023/04/11 01:33:22;;;;;;;8.38;7.53;;;7.90;99.90;;;;;;5060352;28;20650;-57
2023/04/11 01:35:48;;;;;;;11.18;8.25;;;7.90;99.90;;;;;;5061026;28;20079;-58
2023/04/11 01:38:14;;;;;;;9.68;8.63;;;7.80;99.90;;;;;;5060837;28;20100;-58
2023/04/11 01:40:40;;;;;;;8.52;7.53;;;7.70;99.90;;;;;;5061831;28;20029;-57
2023/04/11 01:43:08;;;;;;;10.02;9.02;;;7.60;99.90;;;;;;5058973;28;20090;-57
2023/04/11 01:45:35;;;;;;;9.60;8.60;;;7.60;99.90;;;;;;5056504;28;20501;-57
2023/04/11 01:48:08;;;;;;;10.52;8.65;;;7.50;99.90;;;;;;5055927;28;20065;-58
2023/04/11 01:50:34;;;;;;;10.65;9.35;;;7.40;99.90;;;;;;5055756;28;21983;-58
2023/04/11 01:53:00;;;;;;;15.65;10.43;;;7.40;99.90;;;;;;5062130;28;20041;-58
2023/04/11 01:55:26;;;;;;;11.15;9.95;;;7.30;99.90;;;;;;5064007;28;20106;-56
2023/04/11 01:57:51;;;;;;;12.32;11.05;;;7.30;99.90;;;;;;5061399;28;20412;-58
2023/04/11 02:00:18;;;;;;;12.20;10.95;;;7.20;99.90;;;;;;5061738;28;20120;-58
2023/04/11 02:02:44;;;;;;;12.13;10.05;;;7.20;99.90;;;;;;5061703;28;20527;-57
2023/04/11 02:05:11;;;;;;;12.40;10.88;;;7.20;99.90;;;;;;5061678;28;20032;-57
2023/04/11 02:07:36;;;;;;;12.43;11.13;;;7.10;99.90;;;;;;5062747;28;20540;-58
2023/04/11 02:10:02;;;;;;;13.45;11.73;;;7.10;99.90;;;;;;5062751;28;20112;-57
2023/04/11 02:12:28;;;;;;;14.13;11.65;;;7.10;99.90;;;;;;5062803;28;20877;-56
2023/04/11 02:14:53;;;;;;;13.45;11.20;;;7.10;99.90;;;;;;5065129;28;20759;-58
2023/04/11 02:17:21;;;;;;;11.75;10.55;;;7.00;99.90;;;;;;5063327;28;20022;-58
2023/04/11 02:19:46;;;;;;;12.05;10.63;;;7.00;99.90;;;;;;5061881;28;20028;-58
2023/04/11 02:22:14;;;;;;;12.20;9.93;;;7.00;99.90;;;;;;5061545;28;20404;-56
2023/04/11 02:24:40;;;;;;;14.10;11.00;;;7.00;99.90;;;;;;5063737;28;20020;-56
2023/04/11 02:27:07;;;;;;;13.27;11.68;;;7.00;99.90;;;;;;5063375;28;20035;-57
2023/04/11 02:29:33;;;;;;;15.68;12.90;;;6.90;99.90;;;;;;5058282;28;20041;-57
2023/04/11 02:31:59;;;;;;;17.58;12.40;;;6.90;99.90;;;;;;5061466;28;20507;-57
2023/04/11 02:34:25;;;;;;;18.65;12.48;;;6.90;99.90;;;;;;5061600;28;20583;-57
2023/04/11 02:36:51;;;;;;;17.35;12.32;;;6.80;99.90;;;;;;5059450;28;20043;-56
2023/04/11 02:39:17;;;;;;;16.38;12.98;;;6.90;99.90;;;;;;5057656;28;20033;-57
2023/04/11 02:41:43;;;;;;;17.65;12.48;;;6.90;99.90;;;;;;5058209;28;20029;-57
2023/04/11 02:44:10;;;;;;;17.45;12.35;;;6.90;99.90;;;;;;5061746;28;20044;-58
2023/04/11 02:46:35;;;;;;;19.70;13.88;;;6.90;99.90;;;;;;5057975;28;20496;-57
2023/04/11 02:49:01;;;;;;;15.30;12.90;;;6.90;99.90;;;;;;5059618;28;20037;-56
2023/04/11 02:51:27;;;;;;;16.80;12.85;;;6.80;99.90;;;;;;5058443;28;20032;-58
2023/04/11 02:53:53;;;;;;;21.25;13.38;;;6.80;99.90;;;;;;5061219;28;20048;-57
2023/04/11 02:56:19;;;;;;;17.08;13.13;;;6.90;99.90;;;;;;5062394;28;20722;-58
2023/04/11 02:58:45;;;;;;;17.92;14.75;;;6.80;99.90;;;;;;5057900;28;20155;-58
2023/04/11 03:01:13;;;;;;;18.90;13.93;;;6.80;99.90;;;;;;5063638;28;20077;-58
2023/04/11 03:03:39;;;;;;;20.20;14.27;;;6.80;99.90;;;;;;5063117;28;20033;-57
2023/04/11 03:06:06;;;;;;;17.15;13.23;;;6.80;99.90;;;;;;5059593;28;20121;-58
2023/04/11 03:08:32;;;;;;;20.17;14.10;;;6.80;99.90;;;;;;5057853;28;20047;-58
2023/04/11 03:10:58;;;;;;;23.58;13.77;;;6.80;99.90;;;;;;5062337;28;20599;-58
2023/04/11 03:13:25;;;;;;;17.60;13.75;;;6.80;99.90;;;;;;5058143;28;20147;-57
2023/04/11 03:15:50;;;;;;;19.08;14.73;;;6.80;99.90;;;;;;5063208;28;20029;-58
2023/04/11 03:18:17;;;;;;;20.52;13.25;;;6.80;99.90;;;;;;5064644;28;20031;-57
2023/04/11 03:20:43;;;;;;;24.15;15.07;;;6.80;99.90;;;;;;5057721;28;20057;-56
2023/04/11 03:23:09;;;;;;;18.98;13.82;;;6.80;99.90;;;;;;5056015;28;20453;-57
2023/04/11 03:25:36;;;;;;;19.65;14.60;;;6.80;99.90;;;;;;5062569;28;20024;-58
2023/04/11 03:28:02;;;;;;;19.23;13.70;;;6.80;99.90;;;;;;5059197;28;20032;-58
2023/04/11 03:30:28;;;;;;;23.73;15.27;;;6.80;99.90;;;;;;5058874;28;20060;-58
2023/04/11 03:32:54;;;;;;;25.38;15.20;;;6.90;99.90;;;;;;5058998;28;20052;-57
2023/04/11 03:35:20;;;;;;;24.02;15.00;;;6.90;99.90;;;;;;5057935;28;20736;-57
2023/04/11 03:37:46;;;;;;;30.83;17.08;;;6.90;99.90;;;;;;5058526;28;20124;-57
2023/04/11 03:40:12;;;;;;;27.88;16.50;;;6.90;99.90;;;;;;5060540;28;20023;-59
2023/04/11 03:42:38;;;;;;;24.67;15.88;;;6.90;99.90;;;;;;5061703;28;20033;-58
2023/04/11 03:45:04;;;;;;;29.73;16.02;;;6.90;99.90;;;;;;5061790;28;20033;-57
2023/04/11 03:47:29;;;;;;;20.58;14.35;;;6.90;99.90;;;;;;5059492;28;20029;-58
2023/04/11 03:49:55;;;;;;;24.23;14.75;;;6.90;99.90;;;;;;5052595;28;20086;-58
2023/04/11 03:52:21;;;;;;;24.80;14.75;;;7.00;99.90;;;;;;5039662;28;20025;-58
2023/04/11 03:54:46;;;;;;;29.00;14.75;;;7.00;99.90;;;;;;5061759;28;20029;-58
2023/04/11 03:57:12;;;;;;;30.45;15.77;;;7.00;99.90;;;;;;5059567;28;20060;-58
2023/04/11 03:59:38;;;;;;;26.90;16.17;;;7.00;99.90;;;;;;5053701;28;20055;-57
2023/04/11 04:02:03;;;;;;;29.27;17.15;;;7.00;99.90;;;;;;5062455;28;20648;-57
2023/04/11 04:04:31;;;;;;;29.20;16.98;;;7.00;99.90;;;;;;5058750;28;20047;-57
2023/04/11 04:06:56;;;;;;;30.02;15.23;;;7.00;99.90;;;;;;5059265;28;20105;-57
2023/04/11 04:09:23;;;;;;;36.05;16.90;;;7.00;99.90;;;;;;5059837;28;20120;-57
2023/04/11 04:11:49;;;;;;;29.30;16.08;;;7.00;99.90;;;;;;5058380;28;20066;-57
2023/04/11 04:14:15;;;;;;;48.20;17.98;;;7.00;99.90;;;;;;5059639;28;20040;-57
2023/04/11 04:16:41;;;;;;;38.13;16.55;;;7.10;99.90;;;;;;5058694;28;20417;-59
2023/04/11 04:19:06;;;;;;;33.13;17.17;;;7.10;99.90;;;;;;5062060;28;20025;-58
2023/04/11 04:21:36;;;;;;;51.65;18.00;;;7.10;99.90;;;;;;5056354;28;20114;-58
2023/04/11 04:24:03;;;;;;;42.70;16.88;;;7.20;99.90;;;;;;5058751;28;20040;-58
2023/04/11 04:26:30;;;;;;;51.25;18.10;;;7.20;99.90;;;;;;5058329;28;20028;-58
2023/04/11 04:29:05;;;;;;;29.08;15.95;;;7.30;99.90;;;;;;5056940;28;20041;-57
2023/04/11 04:31:35;;;;;;;28.45;16.52;;;7.30;99.90;;;;;;5056669;28;20143;-58
2023/04/11 04:34:09;;;;;;;24.35;16.30;;;7.30;99.90;;;;;;5062444;28;20074;-58
2023/04/11 04:36:48;;;;;;;27.17;15.40;;;7.30;99.90;;;;;;5056959;28;20073;-57
2023/04/11 04:39:18;;;;;;;25.60;16.02;;;7.30;99.90;;;;;;5059157;28;20041;-57
2023/04/11 04:41:48;;;;;;;45.80;15.77;;;7.30;99.90;;;;;;5059962;28;20035;-58
2023/04/11 04:44:15;;;;;;;29.63;15.82;;;7.30;99.90;;;;;;5056795;28;20128;-57
2023/04/11 04:46:41;;;;;;;40.88;16.38;;;7.30;99.90;;;;;;5058877;28;20108;-57
2023/04/11 04:49:07;;;;;;;51.03;17.60;;;7.40;99.90;;;;;;5059088;28;20471;-58
2023/04/11 04:51:39;;;;;;;43.85;17.33;;;7.40;99.90;;;;;;5056077;28;20705;-57
2023/04/11 04:54:04;;;;;;;28.42;15.93;;;7.40;99.90;;;;;;5059006;28;20028;-57
2023/04/11 04:56:30;;;;;;;30.88;14.63;;;7.40;99.90;;;;;;5060988;28;20516;-57
2023/04/11 04:58:56;;;;;;;25.92;15.32;;;7.50;99.90;;;;;;5058114;28;20447;-56
2023/04/11 05:01:25;;;;;;;47.67;17.20;;;7.50;99.90;;;;;;5062152;28;20025;-56
2023/04/11 05:03:58;;;;;;;37.05;15.93;;;7.50;99.90;;;;;;5056926;28;20044;-57
2023/04/11 05:06:28;;;;;;;26.75;14.82;;;7.50;99.90;;;;;;5057317;28;20589;-57
2023/04/11 05:08:56;;;;;;;25.77;14.70;;;7.50;99.90;;;;;;5058510;28;20040;-56
2023/04/11 05:11:22;;;;;;;24.15;15.40;;;7.50;99.90;;;;;;5062019;28;20097;-55
2023/04/11 05:13:48;;;;;;;22.95;13.55;;;7.50;99.90;;;;;;5058105;28;20051;-58
2023/04/11 05:16:15;;;;;;;11.15;8.93;;;7.60;99.90;;;;;;5057054;28;20024;-58
2023/04/11 05:18:41;;;;;;;6.45;5.68;;;7.70;99.90;;;;;;5058436;28;20083;-58
2023/04/11 05:21:07;;;;;;;4.93;4.10;;;7.70;99.90;;;;;;5059087;28;20582;-57
2023/04/11 05:23:32;;;;;;;3.30;3.00;;;7.70;99.90;;;;;;5055270;28;20500;-58
2023/04/11 05:25:58;;;;;;;3.95;3.42;;;7.70;99.90;;;;;;5053571;28;20025;-57
2023/04/11 05:28:24;;;;;;;3.70;3.13;;;7.70;99.90;;;;;;5052465;28;20025;-56
2023/04/11 05:30:49;;;;;;;3.70;2.97;;;7.70;99.90;;;;;;5058429;28;20024;-56
2023/04/11 05:33:15;;;;;;;3.30;2.42;;;7.70;99.90;;;;;;5058340;28;20969;-58
2023/04/11 05:35:41;;;;;;;4.22;2.08;;;7.70;99.90;;;;;;5057714;28;20025;-57
2023/04/11 05:38:08;;;;;;;3.35;1.92;;;7.60;99.90;;;;;;5056695;28;20044;-56
2023/04/11 05:40:35;;;;;;;5.20;1.75;;;7.60;99.90;;;;;;5056516;28;20025;-58
2023/04/11 05:43:01;;;;;;;3.05;1.52;;;7.50;99.90;;;;;;5057364;28;20025;-57
2023/04/11 05:45:26;;;;;;;3.38;1.20;;;7.50;99.90;;;;;;5057335;28;20047;-58
2023/04/11 05:47:52;;;;;;;1.58;1.10;;;7.50;99.90;;;;;;5054865;28;20036;-57
2023/04/11 05:50:18;;;;;;;3.88;1.10;;;7.40;99.90;;;;;;5045053;28;20029;-57
2023/04/11 05:52:43;;;;;;;1.77;1.08;;;7.30;99.90;;;;;;5040291;28;20025;-58
2023/04/11 05:55:09;;;;;;;3.22;2.33;;;7.30;99.90;;;;;;5062146;28;20029;-55
2023/04/11 05:57:35;;;;;;;2.45;1.33;;;7.20;99.90;;;;;;5060502;28;20032;-56
2023/04/11 06:00:01;;;;;;;1.77;0.98;;;7.10;99.90;;;;;;5064224;28;20031;-58
2023/04/11 06:02:30;;;;;;;3.70;1.10;;;7.10;99.90;;;;;;5058740;28;20161;-58
2023/04/11 06:04:56;;;;;;;1.98;0.80;;;7.10;99.90;;;;;;5061339;28;20032;-58
2023/04/11 06:07:22;;;;;;;0.95;0.80;;;7.10;99.90;;;;;;5058769;28;20013;-57
2023/04/11 06:09:47;;;;;;;1.02;0.70;;;7.10;99.90;;;;;;5058687;28;20103;-58
2023/04/11 06:12:13;;;;;;;1.30;0.80;;;7.20;99.90;;;;;;5062153;28;20111;-58
2023/04/11 06:14:39;;;;;;;1.83;0.80;;;7.20;99.90;;;;;;5062665;28;20039;-57
2023/04/11 06:17:05;;;;;;;2.13;0.75;;;7.30;99.90;;;;;;5062711;28;20024;-57
2023/04/11 06:19:30;;;;;;;2.38;0.90;;;7.30;99.90;;;;;;5061744;28;20131;-57
2023/04/11 06:21:56;;;;;;;2.72;0.95;;;7.30;99.90;;;;;;5062073;28;20036;-58
2023/04/11 06:24:37;;;;;;;1.80;0.95;;;7.40;99.90;;;;;;5062057;28;20528;-57
2023/04/11 06:27:03;;;;;;;;;;;7.50;99.90;;;;;;5060786;28;20576;-58
2023/04/11 06:29:29;;;;;;;3.20;1.05;;;7.50;99.90;;;;;;5059521;28;19921;-57
2023/04/11 06:31:55;;;;;;;1.92;0.90;;;7.60;99.90;;;;;;5057722;28;20044;-58
2023/04/11 06:34:21;;;;;;;2.15;1.05;;;7.70;99.90;;;;;;5061366;28;20029;-57
2023/04/11 06:36:48;;;;;;;1.77;1.20;;;7.70;99.90;;;;;;5060868;28;20036;-58
2023/04/11 06:39:15;;;;;;;2.55;1.10;;;7.80;99.90;;;;;;5062047;28;20162;-58
2023/04/11 06:41:41;;;;;;;2.70;1.23;;;7.80;99.90;;;;;;5058030;28;20488;-58
2023/04/11 06:44:07;;;;;;;1.60;0.82;;;7.80;99.90;;;;;;5059488;28;20832;-57
2023/04/11 06:46:33;;;;;;;1.40;0.90;;;7.70;99.90;;;;;;5059567;28;20044;-56
2023/04/11 06:48:59;;;;;;;3.10;1.50;;;7.60;99.90;;;;;;5061177;28;20025;-56
2023/04/11 06:51:25;;;;;;;2.35;1.00;;;7.60;99.90;;;;;;5060442;28;20726;-57
2023/04/11 06:53:51;;;;;;;1.10;0.70;;;7.50;99.90;;;;;;5059006;28;20048;-57
2023/04/11 06:56:17;;;;;;;1.90;0.90;;;7.50;99.90;;;;;;5061259;28;20102;-58
2023/04/11 06:58:42;;;;;;;3.13;0.80;;;7.50;99.90;;;;;;5060507;28;20728;-57
2023/04/11 07:01:08;;;;;;;2.15;0.60;;;7.60;99.90;;;;;;5055171;28;20025;-58
2023/04/11 07:03:33;;;;;;;1.67;0.77;;;7.60;99.90;;;;;;5062665;28;20036;-58
2023/04/11 07:06:00;;;;;;;3.05;1.17;;;7.60;99.90;;;;;;5058823;28;20524;-57
2023/04/11 07:08:25;;;;;;;3.00;0.90;;;7.70;99.90;;;;;;5062994;28;20757;-58
2023/04/11 07:10:51;;;;;;;5.72;0.90;;;7.70;99.90;;;;;;5058958;28;20033;-58
2023/04/11 07:13:16;;;;;;;2.00;0.70;;;7.70;99.90;;;;;;5058215;28;20105;-58
2023/04/11 07:15:42;;;;;;;1.88;0.75;;;7.70;99.90;;;;;;5061513;28;20386;-57
2023/04/11 07:18:07;;;;;;;1.77;0.88;;;7.70;99.90;;;;;;5062568;28;20020;-57
2023/04/11 07:20:34;;;;;;;2.95;0.90;;;7.80;99.90;;;;;;5057983;28;20111;-57
2023/04/11 07:22:59;;;;;;;1.85;0.80;;;7.90;99.90;;;;;;5058570;28;20112;-57
2023/04/11 07:25:32;;;;;;;3.95;0.70;;;8.00;99.90;;;;;;5058015;28;20112;-57
2023/04/11 07:28:07;;;;;;;1.58;0.70;;;8.10;99.90;;;;;;5059918;28;20040;-57
2023/04/11 07:30:34;;;;;;;1.45;0.88;;;8.20;99.90;;;;;;5062974;28;20401;-58
2023/04/11 07:33:00;;;;;;;0.90;0.70;;;8.40;99.90;;;;;;5058534;28;20757;-58
2023/04/11 07:35:27;;;;;;;5.72;0.82;;;8.40;99.90;;;;;;5058562;28;20033;-57
2023/04/11 07:37:53;;;;;;;0.70;0.70;;;8.40;99.90;;;;;;5055685;28;20036;-56
2023/04/11 07:40:19;;;;;;;2.63;0.70;;;8.60;99.90;;;;;;5062496;28;20016;-57
2023/04/11 07:42:45;;;;;;;1.38;0.55;;;8.60;99.90;;;;;;5060209;28;20025;-58
2023/04/11 07:45:11;;;;;;;0.90;0.60;;;8.60;99.90;;;;;;5061495;28;20090;-57
2023/04/11 07:47:36;;;;;;;2.55;0.80;;;8.70;99.90;;;;;;5059165;28;20042;-56
2023/04/11 07:50:03;;;;;;;1.60;0.82;;;8.70;99.90;;;;;;5056256;28;20041;-56
2023/04/11 07:52:29;;;;;;;1.60;0.80;;;8.70;99.90;;;;;;5039851;28;20029;-57
2023/04/11 07:54:55;;;;;;;2.15;0.63;;;8.80;99.90;;;;;;5061517;28;20025;-57
2023/04/11 07:57:20;;;;;;;2.90;0.70;;;8.90;99.90;;;;;;5069222;28;20517;-57
2023/04/11 07:59:46;;;;;;;3.30;0.80;;;9.00;99.90;;;;;;5060862;28;20048;-56
2023/04/11 08:02:12;;;;;;;4.55;0.80;;;9.00;99.90;;;;;;5062506;28;20049;-58
2023/04/11 08:04:37;;;;;;;1.15;0.80;;;9.00;99.90;;;;;;5060302;28;20108;-58
2023/04/11 08:07:03;;;;;;;1.75;0.82;;;9.20;99.90;;;;;;5056177;28;20029;-57
2023/04/11 08:09:29;;;;;;;1.42;1.10;;;9.50;99.90;;;;;;5056873;28;20043;-57
2023/04/11 08:11:55;;;;;;;2.47;0.77;;;9.70;99.90;;;;;;5057652;28;20049;-55
2023/04/11 08:14:22;;;;;;;1.90;0.63;;;9.70;99.90;;;;;;5056206;28;20098;-57
2023/04/11 08:16:48;;;;;;;2.08;0.73;;;9.70;99.90;;;;;;5058088;28;20033;-57
2023/04/11 08:19:13;;;;;;;5.40;1.00;;;9.80;99.90;;;;;;5061851;28;20090;-58
2023/04/11 08:21:40;;;;;;;1.75;0.70;;;9.80;99.90;;;;;;5058528;28;20068;-57
2023/04/11 08:24:06;;;;;;;4.60;0.98;;;9.90;99.90;;;;;;5060046;28;20377;-56
2023/04/11 08:26:31;;;;;;;1.73;0.80;;;9.90;99.90;;;;;;5059517;28;20634;-57
2023/04/11 08:28:57;;;;;;;2.47;0.70;;;9.90;99.90;;;;;;5057022;28;20571;-57
2023/04/11 08:31:23;;;;;;;4.13;1.23;;;10.00;99.90;;;;;;5057143;28;20042;-56
2023/04/11 08:33:49;;;;;;;5.53;0.90;;;10.20;99.90;;;;;;5059939;28;20020;-56
2023/04/11 08:36:15;;;;;;;5.28;0.90;;;10.30;99.90;;;;;;5058446;28;20035;-56
2023/04/11 08:38:41;;;;;;;2.83;0.95;;;10.30;99.90;;;;;;5061612;28;20403;-56
2023/04/11 08:41:07;;;;;;;1.75;0.73;;;10.30;99.90;;;;;;5060236;28;20031;-57
2023/04/11 08:43:37;;;;;;;2.63;0.80;;;10.40;99.90;;;;;;5056182;28;20017;-57
2023/04/11 08:46:03;;;;;;;3.45;0.90;;;10.60;99.90;;;;;;5056701;28;20108;-57
2023/04/11 08:48:31;;;;;;;2.35;0.70;;;10.70;99.90;;;;;;5058184;28;20064;-57
2023/04/11 08:50:56;;;;;;;1.95;0.95;;;10.70;99.90;;;;;;5058569;28;20490;-57
2023/04/11 08:53:24;;;;;;;2.47;1.00;;;10.60;99.90;;;;;;5055102;28;20112;-58
2023/04/11 08:55:50;;;;;;;1.60;0.77;;;10.40;99.90;;;;;;5060752;28;20111;-57
2023/04/11 08:58:16;;;;;;;5.40;0.93;;;10.30;99.90;;;;;;5058265;28;20115;-57
2023/04/11 09:00:42;;;;;;;2.38;0.90;;;10.40;99.90;;;;;;5059700;28;20131;-57
2023/04/11 09:03:09;;;;;;;2.75;0.88;;;10.60;99.90;;;;;;5065749;28;20044;-57
2023/04/11 09:05:37;;;;;;;3.00;0.93;;;11.00;99.90;;;;;;5059737;28;20028;-58
2023/04/11 09:08:10;;;;;;;7.32;0.90;;;11.20;99.90;;;;;;5059901;28;20162;-57
2023/04/11 09:10:37;;;;;;;2.53;0.85;;;11.20;99.90;;;;;;5059126;28;20100;-59
2023/04/11 09:13:17;;;;;;;3.28;1.23;;;11.10;99.90;;;;;;5055783;28;20497;-56
2023/04/11 09:15:43;;;;;;;2.78;0.80;;;11.00;99.90;;;;;;5059296;28;20032;-56
2023/04/11 09:18:08;;;;;;;3.90;0.90;;;10.70;99.90;;;;;;5061401;28;20033;-56
2023/04/11 09:20:34;;;;;;;2.03;0.80;;;10.50;99.90;;;;;;5059090;28;20374;-57
2023/04/11 09:23:00;;;;;;;4.38;1.40;;;10.40;99.90;;;;;;5060580;28;20179;-57
2023/04/11 09:25:26;;;;;;;2.50;0.88;;;10.50;99.90;;;;;;5058098;28;20556;-56
2023/04/11 09:28:09;;;;;;;2.28;0.90;;;11.20;99.90;;;;;;5058957;28;20112;-56
2023/04/11 09:30:35;;;;;;;2.63;1.00;;;12.00;99.90;;;;;;5064701;28;20025;-57
2023/04/11 09:33:19;;;;;;;9.88;1.38;;;12.30;99.90;;;;;;5061549;28;20032;-58
2023/04/11 09:35:47;;;;;;;2.92;1.02;;;12.60;99.90;;;;;;5064225;28;20025;-58
2023/04/11 09:38:13;;;;;;;2.45;1.10;;;13.10;99.90;;;;;;5062089;28;20865;-57
2023/04/11 09:40:43;;;;;;;4.53;1.08;;;13.50;99.90;;;;;;5061052;28;20043;-57
2023/04/11 09:43:08;;;;;;;5.80;1.08;;;13.70;95.00;;;;;;5063450;28;20031;-57
2023/04/11 09:45:34;;;;;;;4.05;1.02;;;13.80;94.80;;;;;;5067455;28;20037;-56
2023/04/11 09:48:00;;;;;;;3.30;0.93;;;13.90;96.50;;;;;;5062173;28;20041;-58
2023/04/11 09:50:27;;;;;;;2.35;0.95;;;14.00;92.20;;;;;;5062854;28;20025;-58
2023/04/11 09:52:54;;;;;;;2.70;0.80;;;13.80;92.20;;;;;;5062246;28;20036;-58
2023/04/11 09:55:21;;;;;;;2.28;0.80;;;13.40;93.10;;;;;;5060606;28;20145;-58
2023/04/11 09:57:49;;;;;;;3.47;0.93;;;12.90;94.10;;;;;;5065733;28;20024;-58
2023/04/11 10:00:21;;;;;;;3.80;1.20;;;12.80;94.80;;;;;;5059726;28;20027;-58
2023/04/11 10:02:49;;;;;;;2.53;0.80;;;12.60;96.00;;;;;;5062034;28;20394;-58
2023/04/11 10:05:17;;;;;;;2.95;0.90;;;12.70;96.60;;;;;;5060326;28;20040;-57
2023/04/11 10:08:24;;;;;;;2.78;0.80;;;12.90;96.50;;;;;;5060711;28;20106;-58
2023/04/11 10:10:51;;;;;;;3.20;1.05;;;12.90;93.00;;;;;;5061425;28;20043;-57
2023/04/11 10:13:45;;;;;;;2.65;0.80;;;12.80;93.10;;;;;;5060156;28;20032;-57
2023/04/11 10:16:15;;;;;;;4.10;1.00;;;12.50;92.00;;;;;;5059487;28;20126;-57
2023/04/11 10:18:50;;;;;;;2.33;0.95;;;12.20;93.50;;;;;;5061458;28;20119;-56
2023/04/11 10:21:35;;;;;;;1.90;0.80;;;11.80;94.80;;;;;;5061341;28;20035;-58
2023/04/11 10:24:17;;;;;;;3.10;0.90;;;11.50;98.10;;;;;;5053938;28;20115;-58
2023/04/11 10:26:56;;;;;;;6.35;0.90;;;11.70;96.80;;;;;;5060962;28;20032;-57
2023/04/11 10:29:32;;;;;;;3.42;0.88;;;11.90;98.30;;;;;;5059009;28;21082;-56
2023/04/11 10:32:18;;;;;;;4.25;0.85;;;12.20;98.60;;;;;;5059534;28;20437;-57
2023/04/11 10:34:52;;;;;;;5.35;0.90;;;12.20;98.20;;;;;;5059965;28;20040;-58
2023/04/11 10:37:31;;;;;;;4.35;1.00;;;11.20;99.90;;;;;;5058389;28;20038;-57
2023/04/11 10:39:59;;;;;;;2.65;0.85;;;10.20;99.90;;;;;;5062653;28;20048;-56
2023/04/11 10:42:32;;;;;;;2.20;0.80;;;9.50;99.90;;;;;;5058711;28;20048;-56
2023/04/11 10:45:25;;;;;;;1.73;0.75;;;9.10;99.90;;;;;;5061129;28;20060;-57
2023/04/11 10:47:50;;;;;;;2.33;0.70;;;8.80;99.90;;;;;;5059794;28;20040;-57
2023/04/11 10:50:25;;;;;;;1.60;0.70;;;9.00;99.90;;;;;;5063860;28;20369;-57
2023/04/11 10:52:55;;;;;;;1.17;0.80;;;9.00;99.90;;;;;;5063237;28;20024;-58
2023/04/11 10:55:21;;;;;;;1.98;0.80;;;9.10;99.90;;;;;;5058244;28;20033;-57
2023/04/11 10:58:08;;;;;;;2.97;0.80;;;9.60;99.90;;;;;;5061388;28;20040;-58
2023/04/11 11:00:49;;;;;;;1.05;0.60;;;10.00;99.90;;;;;;5060236;28;20489;-57
2023/04/11 11:03:19;;;;;;;3.58;0.80;;;10.40;99.90;;;;;;5059861;28;20057;-57
2023/04/11 11:05:45;;;;;;;3.38;0.70;;;10.70;99.90;;;;;;5062106;28;20031;-58
2023/04/11 11:08:11;;;;;;;1.25;0.70;;;11.00;99.90;;;;;;5059719;28;20409;-57
2023/04/11 11:10:42;;;;;;;2.50;0.90;;;11.30;99.90;;;;;;5060439;28;20101;-58
2023/04/11 11:13:08;;;;;;;2.15;0.75;;;11.70;99.90;;;;;;5059978;28;20094;-58
2023/04/11 11:15:36;;;;;;;2.97;0.73;;;12.00;99.90;;;;;;5059727;28;20043;-57
2023/04/11 11:18:08;;;;;;;2.20;0.88;;;12.30;99.90;;;;;;5061226;28;20036;-58
2023/04/11 11:20:36;;;;;;;1.75;0.70;;;12.70;99.90;;;;;;5059763;28;20151;-58
2023/04/11 11:23:08;;;;;;;3.78;0.90;;;13.10;99.90;;;;;;5059758;28;20025;-58
2023/04/11 11:25:34;;;;;;;2.25;1.08;;;13.50;99.90;;;;;;5058292;28;20035;-58
2023/04/11 11:28:05;;;;;;;2.33;0.80;;;13.90;95.70;;;;;;5056791;28;20571;-58
2023/04/11 11:30:31;;;;;;;;;;;14.10;92.20;;;;;;5059534;28;20025;-58
2023/04/11 11:32:57;;;;;;;3.47;0.90;;;13.60;90.90;;;;;;5059858;28;19973;-58
2023/04/11 11:35:23;;;;;;;2.80;1.08;;;13.10;91.30;;;;;;5060286;28;20548;-56
2023/04/11 11:37:51;;;;;;;2.65;1.13;;;12.40;92.80;;;;;;5059286;28;20031;-57
2023/04/11 11:40:20;;;;;;;1.65;0.45;;;11.60;95.10;;;;;;5057097;28;20041;-58
2023/04/11 11:42:50;;;;;;;1.42;0.50;;;10.40;96.10;;;;;;5059285;28;20143;-57
2023/04/11 11:45:20;;;;;;;3.17;0.88;;;9.10;99.90;;;;;;5057258;28;20392;-58
2023/04/11 11:47:48;;;;;;;2.45;0.80;;;8.10;99.90;;;;;;5058195;28;20488;-58
2023/04/11 11:50:24;;;;;;;0.65;0.60;;;7.50;99.90;;;;;;5058653;28;20111;-57
2023/04/11 11:52:50;;;;;;;0.60;0.55;;;7.20;99.90;;;;;;5056125;28;20147;-57
2023/04/11 11:55:18;;;;;;;2.10;0.70;;;7.00;99.90;;;;;;5056595;28;20151;-58
2023/04/11 11:57:45;;;;;;;1.05;0.55;;;6.90;99.90;;;;;;5054455;28;20033;-56
2023/04/11 12:00:12;;;;;;;2.15;0.60;;;6.80;99.90;;;;;;5055306;28;20060;-58
2023/04/11 12:02:39;;;;;;;1.30;0.70;;;6.80;99.90;;;;;;5053826;28;20458;-57
2023/04/11 12:05:06;;;;;;;0.68;0.60;;;7.30;99.90;;;;;;5053322;28;20111;-58
2023/04/11 12:07:33;;;;;;;0.52;0.45;;;8.00;99.90;;;;;;5058843;28;20039;-58
2023/04/11 12:10:07;;;;;;;1.52;1.23;;;8.50;99.90;;;;;;5059356;28;20056;-58
2023/04/11 12:12:41;;;;;;;1.58;0.40;;;8.80;99.90;;;;;;5060360;28;20044;-58
2023/04/11 12:15:15;;;;;;;0.50;0.40;;;9.00;99.90;;;;;;5057840;28;20057;-57
2023/04/11 12:17:42;;;;;;;2.95;0.60;;;9.10;99.90;;;;;;5057198;28;20530;-59
2023/04/11 12:20:09;;;;;;;0.63;0.63;;;9.20;99.90;;;;;;5056817;28;20044;-57
2023/04/11 12:22:36;;;;;;;1.50;0.70;;;9.20;99.90;;;;;;5057925;28;20057;-59
2023/04/11 12:25:09;;;;;;;2.08;0.90;;;9.50;99.90;;;;;;5061953;28;20032;-58
2023/04/11 12:27:40;;;;;;;1.63;0.80;;;9.70;99.90;;;;;;5058680;28;20074;-58
2023/04/11 12:30:06;;;;;;;1.08;0.70;;;9.80;99.90;;;;;;5060095;28;20028;-59
2023/04/11 12:32:32;;;;;;;1.70;0.68;;;10.10;99.90;;;;;;5061441;28;20024;-58
2023/04/11 12:34:58;;;;;;;1.83;0.80;;;10.30;99.90;;;;;;5057041;28;20040;-58
2023/04/11 12:37:24;;;;;;;1.58;0.70;;;10.30;99.90;;;;;;5058525;28;20028;-56
2023/04/11 12:39:50;;;;;;;1.58;0.57;;;10.40;99.90;;;;;;5056843;28;20124;-58
2023/04/11 12:42:16;;;;;;;1.88;0.60;;;10.30;99.90;;;;;;5055135;28;20636;-56
2023/04/11 12:44:42;;;;;;;2.05;1.02;;;10.20;99.90;;;;;;5056643;28;20039;-58
2023/04/11 12:47:08;;;;;;;4.10;1.50;;;10.20;99.90;;;;;;5058062;28;20060;-57
2023/04/11 12:49:34;;;;;;;2.70;0.77;;;10.50;99.90;;;;;;5059799;28;20075;-59
2023/04/11 12:51:59;;;;;;;8.20;1.08;;;10.90;99.90;;;;;;5038544;28;20025;-59